This is the latest recevied weather packets stored in our database for station/object KI5NYZ-13. If no packets are shown the sender has not sent any weather packets the latest 10 day(s).
| Time | Temp. | Humidity | Pressure | Rain* | Wind** | Luminosity | Snow |
|---|---|---|---|---|---|---|---|
| 1778272826 | 30° C | 18% | 1002.3 hPa | 0 mm | - | - | - |
| 1778271025 | 30° C | 16% | 1002.9 hPa | 0 mm | - | - | - |
| 1778269224 | 28.89° C | 23% | 1003.7 hPa | 0 mm | - | - | - |
| 1778267422 | 27.78° C | 32% | 1004.4 hPa | 0 mm | - | - | - |
| 1778265621 | 26.67° C | 38% | 1005.4 hPa | 0 mm | - | - | - |
| 1778263820 | 25° C | 48% | 1006.8 hPa | 0 mm | - | - | - |
| 1778262019 | 23.89° C | 54% | 1007.6 hPa | 0 mm | - | - | - |
| 1778260219 | 22.22° C | 59% | 1008.5 hPa | 0 mm | - | - | - |
| 1778258417 | 21.11° C | 63% | 1009.4 hPa | 0 mm | - | - | - |
| 1778256616 | 20° C | 68% | 1010.2 hPa | 0 mm | - | - | - |
| 1778254815 | 18.33° C | 74% | 1011 hPa | 0 mm | - | - | - |
| 1778253014 | 17.22° C | 79% | 1011.6 hPa | 0 mm | - | - | - |
| 1778251213 | 17.22° C | 80% | 1011.9 hPa | 0 mm | - | - | - |
| 1778249412 | 16.11° C | 81% | 1012.1 hPa | 0 mm | - | - | - |
| 1778247611 | 15.56° C | 83% | 1012.4 hPa | 0 mm | - | - | - |
| 1778245810 | 15° C | 82% | 1012.4 hPa | 0 mm | - | - | - |
| 1778242230 | 14.44° C | 84% | 1012.4 hPa | 0 mm | - | - | - |
| 1778218396 | 13.89° C | 62% | 1013.9 hPa | 0 mm | - | - | - |
| 1778216595 | 15° C | 58% | 1013.3 hPa | 0 mm | - | - | - |
| 1778214794 | 16.11° C | 54% | 1013.2 hPa | 0 mm | - | - | - |
| 1778212993 | 16.67° C | 51% | 1012.9 hPa | 0 mm | - | - | - |
| 1778211193 | 17.78° C | 50% | 1012.3 hPa | 0 mm | - | - | - |
| 1778209391 | 18.33° C | 48% | 1011.7 hPa | 0 mm | - | - | - |
| 1778207591 | 19.44° C | 42% | 1010.9 hPa | 0 mm | - | - | - |
| 1778205789 | 20.56° C | 36% | 1010.1 hPa | 0 mm | - | - | - |
* Rain latest hour (hover to see other rain measurements)
** Current wind speed in m/s (hover to see current wind gust speed)